Airfield :
LOGIN :

Register | Disclaimer

   EN    FR    IT 

 










Legend :    VFR   Marginal VFR   IFR   Intensive IFR   Very Intensive IFR
Visi :
Ceiling :
>= 8 km
>= 3000ft
5 to 8 km
1000 to 3000 ft
1500m to 5 km
500 to 1000 ft
800 to 1500m
200 to 500 ft
< 800m
< 200 ft
Symbols :   Thunderstorms  Fog  Heavy snow  Heavy precipitations  Wind > 20 kt
SIGMETs :     Misc.  Thunderstorms  Icing  Turbulence  Mountain Waves  Volcanic Ashes







- Airport Elevation : 32 ft
- IATA code : LKZ


EGUL - RAF Lakenheath

CURRENT METAR :
  • 251816Z AUTO 35006KT 9999 -RA FEW016 SCT029 BKN080 05/05 A2991 RMK AO2 RAB16

EXPIRED METARs :
  • 251758Z AUTO VRB03KT 9999 CLR 04/04 A2991 RMK AO2 PK WND 01026/06 RAB09E27DZB27E28RAB28E30 SLP132 P0002 60002 T00390039 10108 20032 50009
  • 251730Z AUTO 03004KT 9999 SCT017 SCT024 03/03 A2991 RMK AO2 RAB09E27DZB27E28RAB28E30
  • 251728Z AUTO 03004KT 9999 -RA SCT017 SCT024 03/03 A2991 RMK AO2 RAB09E27DZB27E28RAB28
  • 251709Z AUTO 01013G20KT 9999 -RA FEW017 BKN024 06/04 A2992 RMK AO2 RAB09 BKN V FEW
  • 251558Z AUTO 34011G19KT 9999 SCT070 BKN085 06/03 A2991 RMK AO2 PK WND 34028/16 DZB37E45 SLP132 P0000 T00630030
  • 251545Z AUTO 34014G19KT 9999 FEW065 07/02 A2991 RMK AO2 DZB37E45
  • 251458Z AUTO 32012G19KT 9999 FEW049 BKN055 09/M03 A2989 RMK AO2 DZB19E28DZB34E51 SLP125 P0000 60000 T00911026 55003

TAF AMD TAF EGUL
Valid from the 25 at 17:00 until the 26 at 18:00 UTC


251727Z 2517/2618 01009KT 9000 -SHRA BKN050 610509 510005 QNH2985INS
TEMPO 2517/2519 01012G18KT 8000 -SHRAGS
BECMG 2519/2520 34012KT 9999 NSW SCT035 QNH2986INS
BECMG 2523/2524 34009KT 9999 BKN020 610209 611103 QNH2990INS
BECMG 2607/2608 36010G15KT 9000 -SHRA BKN040 610409 QNH2995INS TX11/2615Z TN01/2605Z
No reported NOTAMs for that airfield.



MET'MAP, your aeronautical weather chart ! - Copyright ORBIFLY December 2007 - Disclaimer

ORBIFLY MET'MAP TEAM :

Programming & Development : Alexandra Zaïnal
Concept & Development : Baudouin d'Aumeries
Co-Development & Prog : Marc-Olivier Méhu
Technical & hardware support : Manuel Goepfert

Contact : metmap@orbifly.com




SOURCES & CREDITS :

   NOAA